sensor_id;sensor_type;location;lat;lon;timestamp;temperature;humidity
15103;DHT22;7652;53.584;9.998;2023-04-06T00:01:48;4.50;99.90
15103;DHT22;7652;53.584;9.998;2023-04-06T00:04:51;4.40;99.90
15103;DHT22;7652;53.584;9.998;2023-04-06T00:07:54;4.40;99.90
15103;DHT22;7652;53.584;9.998;2023-04-06T00:10:57;4.50;99.90
15103;DHT22;7652;53.584;9.998;2023-04-06T00:14:00;4.40;99.90
15103;DHT22;7652;53.584;9.998;2023-04-06T00:17:04;4.40;99.90
15103;DHT22;7652;53.584;9.998;2023-04-06T00:20:08;4.40;99.90
15103;DHT22;7652;53.584;9.998;2023-04-06T00:23:11;4.30;99.90
15103;DHT22;7652;53.584;9.998;2023-04-06T00:26:14;4.30;99.90
15103;DHT22;7652;53.584;9.998;2023-04-06T00:29:17;4.30;99.90
15103;DHT22;7652;53.584;9.998;2023-04-06T00:32:22;4.20;99.90
15103;DHT22;7652;53.584;9.998;2023-04-06T00:35:25;4.20;99.90
15103;DHT22;7652;53.584;9.998;2023-04-06T00:38:27;4.20;99.90
15103;DHT22;7652;53.584;9.998;2023-04-06T00:41:31;4.10;99.90
15103;DHT22;7652;53.584;9.998;2023-04-06T00:44:33;4.10;99.90
15103;DHT22;7652;53.584;9.998;2023-04-06T00:47:38;4.10;99.90
15103;DHT22;7652;53.584;9.998;2023-04-06T00:50:41;4.10;99.90
15103;DHT22;7652;53.584;9.998;2023-04-06T00:53:44;4.00;99.90
15103;DHT22;7652;53.584;9.998;2023-04-06T00:56:47;4.00;99.90
15103;DHT22;7652;53.584;9.998;2023-04-06T00:59:52;4.00;99.90
15103;DHT22;7652;53.584;9.998;2023-04-06T01:02:56;3.90;99.90
15103;DHT22;7652;53.584;9.998;2023-04-06T01:05:59;3.90;99.90
15103;DHT22;7652;53.584;9.998;2023-04-06T01:09:02;3.90;99.90
15103;DHT22;7652;53.584;9.998;2023-04-06T01:12:05;3.80;99.90
15103;DHT22;7652;53.584;9.998;2023-04-06T01:15:09;3.90;99.90
15103;DHT22;7652;53.584;9.998;2023-04-06T01:18:15;3.80;99.90
15103;DHT22;7652;53.584;9.998;2023-04-06T01:21:18;3.80;99.90
15103;DHT22;7652;53.584;9.998;2023-04-06T01:24:22;3.80;99.90
15103;DHT22;7652;53.584;9.998;2023-04-06T01:27:25;3.80;99.90
15103;DHT22;7652;53.584;9.998;2023-04-06T01:30:29;3.80;99.90
15103;DHT22;7652;53.584;9.998;2023-04-06T01:33:32;3.70;99.90
15103;DHT22;7652;53.584;9.998;2023-04-06T01:36:35;3.70;99.90
15103;DHT22;7652;53.584;9.998;2023-04-06T01:39:41;3.60;99.90
15103;DHT22;7652;53.584;9.998;2023-04-06T01:42:44;3.60;99.90
15103;DHT22;7652;53.584;9.998;2023-04-06T01:45:48;3.60;99.90
15103;DHT22;7652;53.584;9.998;2023-04-06T01:48:51;3.60;99.90
15103;DHT22;7652;53.584;9.998;2023-04-06T01:51:54;3.60;99.90
15103;DHT22;7652;53.584;9.998;2023-04-06T01:54:58;3.60;99.90
15103;DHT22;7652;53.584;9.998;2023-04-06T01:58:01;3.60;99.90
15103;DHT22;7652;53.584;9.998;2023-04-06T02:01:04;3.60;99.90
15103;DHT22;7652;53.584;9.998;2023-04-06T02:04:08;3.60;99.90
15103;DHT22;7652;53.584;9.998;2023-04-06T02:07:11;3.60;99.90
15103;DHT22;7652;53.584;9.998;2023-04-06T02:10:15;3.60;99.90
15103;DHT22;7652;53.584;9.998;2023-04-06T02:13:18;3.60;99.90
15103;DHT22;7652;53.584;9.998;2023-04-06T02:16:21;3.50;99.90
15103;DHT22;7652;53.584;9.998;2023-04-06T02:19:24;3.60;99.90
15103;DHT22;7652;53.584;9.998;2023-04-06T02:22:27;3.60;99.90
15103;DHT22;7652;53.584;9.998;2023-04-06T02:25:32;3.60;99.90
15103;DHT22;7652;53.584;9.998;2023-04-06T02:28:35;3.60;99.90
15103;DHT22;7652;53.584;9.998;2023-04-06T02:31:38;3.60;99.90
15103;DHT22;7652;53.584;9.998;2023-04-06T02:34:41;3.60;99.90
15103;DHT22;7652;53.584;9.998;2023-04-06T02:37:43;3.60;99.90
15103;DHT22;7652;53.584;9.998;2023-04-06T02:40:48;3.50;99.90
15103;DHT22;7652;53.584;9.998;2023-04-06T02:43:51;3.50;99.90
15103;DHT22;7652;53.584;9.998;2023-04-06T02:46:54;3.50;99.90
15103;DHT22;7652;53.584;9.998;2023-04-06T02:49:57;3.50;99.90
15103;DHT22;7652;53.584;9.998;2023-04-06T02:53:00;3.50;99.90
15103;DHT22;7652;53.584;9.998;2023-04-06T02:56:05;3.50;99.90
15103;DHT22;7652;53.584;9.998;2023-04-06T02:59:08;3.50;99.90
15103;DHT22;7652;53.584;9.998;2023-04-06T03:02:12;3.50;99.90
15103;DHT22;7652;53.584;9.998;2023-04-06T03:05:15;3.50;99.90
15103;DHT22;7652;53.584;9.998;2023-04-06T03:08:18;3.50;99.90
15103;DHT22;7652;53.584;9.998;2023-04-06T03:11:22;3.50;99.90
15103;DHT22;7652;53.584;9.998;2023-04-06T03:14:25;3.50;99.90
15103;DHT22;7652;53.584;9.998;2023-04-06T03:17:28;3.60;99.90
15103;DHT22;7652;53.584;9.998;2023-04-06T03:20:31;3.60;99.90
15103;DHT22;7652;53.584;9.998;2023-04-06T03:23:34;3.50;99.90
15103;DHT22;7652;53.584;9.998;2023-04-06T03:26:38;3.50;99.90
15103;DHT22;7652;53.584;9.998;2023-04-06T03:29:41;3.50;99.90
15103;DHT22;7652;53.584;9.998;2023-04-06T03:32:44;3.50;99.90
15103;DHT22;7652;53.584;9.998;2023-04-06T03:35:47;3.50;99.90
15103;DHT22;7652;53.584;9.998;2023-04-06T03:38:50;3.60;99.90
15103;DHT22;7652;53.584;9.998;2023-04-06T03:41:56;3.50;99.90
15103;DHT22;7652;53.584;9.998;2023-04-06T03:44:59;3.50;99.90
15103;DHT22;7652;53.584;9.998;2023-04-06T03:48:02;3.40;99.90
15103;DHT22;7652;53.584;9.998;2023-04-06T03:51:05;3.40;99.90
15103;DHT22;7652;53.584;9.998;2023-04-06T03:54:08;3.30;99.90
15103;DHT22;7652;53.584;9.998;2023-04-06T03:57:13;3.30;99.90
15103;DHT22;7652;53.584;9.998;2023-04-06T04:00:16;3.30;99.90
15103;DHT22;7652;53.584;9.998;2023-04-06T04:03:19;3.20;99.90
15103;DHT22;7652;53.584;9.998;2023-04-06T04:06:23;3.20;99.90
15103;DHT22;7652;53.584;9.998;2023-04-06T04:09:26;3.10;99.90
15103;DHT22;7652;53.584;9.998;2023-04-06T04:12:32;3.10;99.90
15103;DHT22;7652;53.584;9.998;2023-04-06T04:15:34;3.10;99.90
15103;DHT22;7652;53.584;9.998;2023-04-06T04:18:38;3.00;99.90
15103;DHT22;7652;53.584;9.998;2023-04-06T04:21:46;3.00;99.90
15103;DHT22;7652;53.584;9.998;2023-04-06T04:24:49;2.90;99.90
15103;DHT22;7652;53.584;9.998;2023-04-06T04:27:53;2.80;99.90
15103;DHT22;7652;53.584;9.998;2023-04-06T04:30:56;2.80;99.90
15103;DHT22;7652;53.584;9.998;2023-04-06T04:33:59;2.80;99.90
15103;DHT22;7652;53.584;9.998;2023-04-06T04:37:03;2.70;99.90
15103;DHT22;7652;53.584;9.998;2023-04-06T04:40:07;2.70;99.90
15103;DHT22;7652;53.584;9.998;2023-04-06T04:43:11;2.60;99.90
15103;DHT22;7652;53.584;9.998;2023-04-06T04:46:14;2.60;99.90
15103;DHT22;7652;53.584;9.998;2023-04-06T04:49:17;2.60;99.90
15103;DHT22;7652;53.584;9.998;2023-04-06T04:52:20;2.60;99.90
15103;DHT22;7652;53.584;9.998;2023-04-06T04:55:23;2.60;99.90
15103;DHT22;7652;53.584;9.998;2023-04-06T04:58:28;2.70;99.90
15103;DHT22;7652;53.584;9.998;2023-04-06T05:01:30;2.70;99.90
15103;DHT22;7652;53.584;9.998;2023-04-06T05:04:52;2.70;99.90
15103;DHT22;7652;53.584;9.998;2023-04-06T05:07:55;2.70;99.90
15103;DHT22;7652;53.584;9.998;2023-04-06T05:10:58;2.70;99.90
15103;DHT22;7652;53.584;9.998;2023-04-06T05:14:03;2.70;99.90
15103;DHT22;7652;53.584;9.998;2023-04-06T05:17:07;2.70;99.90
15103;DHT22;7652;53.584;9.998;2023-04-06T05:20:11;2.70;99.90
15103;DHT22;7652;53.584;9.998;2023-04-06T05:23:14;2.80;99.90
15103;DHT22;7652;53.584;9.998;2023-04-06T05:26:17;2.80;99.90
15103;DHT22;7652;53.584;9.998;2023-04-06T05:29:21;2.90;99.90
15103;DHT22;7652;53.584;9.998;2023-04-06T05:32:24;2.90;99.90
15103;DHT22;7652;53.584;9.998;2023-04-06T05:35:27;2.90;99.90
15103;DHT22;7652;53.584;9.998;2023-04-06T05:38:31;2.90;99.90
15103;DHT22;7652;53.584;9.998;2023-04-06T05:41:35;3.00;99.90
15103;DHT22;7652;53.584;9.998;2023-04-06T05:44:39;3.00;99.90
15103;DHT22;7652;53.584;9.998;2023-04-06T05:47:42;3.00;99.90
15103;DHT22;7652;53.584;9.998;2023-04-06T05:50:48;3.00;99.90
15103;DHT22;7652;53.584;9.998;2023-04-06T05:53:51;3.10;99.90
15103;DHT22;7652;53.584;9.998;2023-04-06T05:56:54;3.10;99.90
15103;DHT22;7652;53.584;9.998;2023-04-06T05:59:58;3.30;99.90
15103;DHT22;7652;53.584;9.998;2023-04-06T06:03:01;3.50;99.90
15103;DHT22;7652;53.584;9.998;2023-04-06T06:06:06;3.50;99.90
15103;DHT22;7652;53.584;9.998;2023-04-06T06:09:09;3.60;99.90
15103;DHT22;7652;53.584;9.998;2023-04-06T06:12:12;3.70;99.90
15103;DHT22;7652;53.584;9.998;2023-04-06T06:15:16;3.70;99.90
15103;DHT22;7652;53.584;9.998;2023-04-06T06:18:19;3.80;99.90
15103;DHT22;7652;53.584;9.998;2023-04-06T06:21:22;4.00;99.90
15103;DHT22;7652;53.584;9.998;2023-04-06T06:24:25;4.40;99.90
15103;DHT22;7652;53.584;9.998;2023-04-06T06:27:32;4.80;99.90
15103;DHT22;7652;53.584;9.998;2023-04-06T06:30:36;5.20;99.90
15103;DHT22;7652;53.584;9.998;2023-04-06T06:33:39;5.40;99.90
15103;DHT22;7652;53.584;9.998;2023-04-06T06:36:42;5.50;99.90
15103;DHT22;7652;53.584;9.998;2023-04-06T06:39:48;5.80;99.90
15103;DHT22;7652;53.584;9.998;2023-04-06T06:42:51;6.00;99.90
15103;DHT22;7652;53.584;9.998;2023-04-06T06:45:56;5.90;99.90
15103;DHT22;7652;53.584;9.998;2023-04-06T06:49:00;6.20;99.90
15103;DHT22;7652;53.584;9.998;2023-04-06T06:52:05;6.40;99.90
15103;DHT22;7652;53.584;9.998;2023-04-06T06:55:10;6.70;99.90
15103;DHT22;7652;53.584;9.998;2023-04-06T06:58:13;6.70;99.90
15103;DHT22;7652;53.584;9.998;2023-04-06T07:01:17;7.00;99.90
15103;DHT22;7652;53.584;9.998;2023-04-06T07:04:20;7.50;99.90
15103;DHT22;7652;53.584;9.998;2023-04-06T07:07:23;7.50;99.90
15103;DHT22;7652;53.584;9.998;2023-04-06T07:10:26;8.20;99.90
15103;DHT22;7652;53.584;9.998;2023-04-06T07:13:31;8.50;99.90
15103;DHT22;7652;53.584;9.998;2023-04-06T07:16:36;8.80;99.90
15103;DHT22;7652;53.584;9.998;2023-04-06T07:19:40;8.60;99.90
15103;DHT22;7652;53.584;9.998;2023-04-06T07:22:43;8.60;99.90
15103;DHT22;7652;53.584;9.998;2023-04-06T07:25:47;9.00;99.90
15103;DHT22;7652;53.584;9.998;2023-04-06T07:28:52;9.00;99.90
15103;DHT22;7652;53.584;9.998;2023-04-06T07:31:57;8.90;99.90
15103;DHT22;7652;53.584;9.998;2023-04-06T07:35:00;9.10;99.90
15103;DHT22;7652;53.584;9.998;2023-04-06T07:38:03;9.30;99.90
15103;DHT22;7652;53.584;9.998;2023-04-06T07:41:06;9.50;99.90
15103;DHT22;7652;53.584;9.998;2023-04-06T07:44:09;9.60;99.90
15103;DHT22;7652;53.584;9.998;2023-04-06T07:47:13;9.60;99.90
15103;DHT22;7652;53.584;9.998;2023-04-06T07:50:16;10.10;99.90
15103;DHT22;7652;53.584;9.998;2023-04-06T07:53:19;10.60;99.90
15103;DHT22;7652;53.584;9.998;2023-04-06T07:56:23;11.00;99.90
15103;DHT22;7652;53.584;9.998;2023-04-06T07:59:26;11.60;99.30
15103;DHT22;7652;53.584;9.998;2023-04-06T08:02:31;12.20;97.50
15103;DHT22;7652;53.584;9.998;2023-04-06T08:05:34;11.60;97.80
15103;DHT22;7652;53.584;9.998;2023-04-06T08:08:37;12.80;96.60
15103;DHT22;7652;53.584;9.998;2023-04-06T08:11:40;13.60;94.50
15103;DHT22;7652;53.584;9.998;2023-04-06T08:14:43;14.10;92.30
15103;DHT22;7652;53.584;9.998;2023-04-06T08:17:47;14.40;91.90
15103;DHT22;7652;53.584;9.998;2023-04-06T08:20:50;15.00;87.30
15103;DHT22;7652;53.584;9.998;2023-04-06T08:23:53;14.90;84.90
15103;DHT22;7652;53.584;9.998;2023-04-06T08:26:56;14.80;83.40
15103;DHT22;7652;53.584;9.998;2023-04-06T08:29:59;14.10;83.30
15103;DHT22;7652;53.584;9.998;2023-04-06T08:33:04;14.50;81.80
15103;DHT22;7652;53.584;9.998;2023-04-06T08:36:11;14.70;80.50
15103;DHT22;7652;53.584;9.998;2023-04-06T08:39:14;15.50;78.60
15103;DHT22;7652;53.584;9.998;2023-04-06T08:42:19;16.30;73.80
15103;DHT22;7652;53.584;9.998;2023-04-06T08:45:23;16.40;73.60
15103;DHT22;7652;53.584;9.998;2023-04-06T08:48:28;16.70;69.50
15103;DHT22;7652;53.584;9.998;2023-04-06T08:51:31;17.00;67.30
15103;DHT22;7652;53.584;9.998;2023-04-06T08:54:34;15.90;69.30
15103;DHT22;7652;53.584;9.998;2023-04-06T08:57:37;15.70;69.40
15103;DHT22;7652;53.584;9.998;2023-04-06T09:00:40;15.00;70.90
15103;DHT22;7652;53.584;9.998;2023-04-06T09:03:45;14.80;73.30
15103;DHT22;7652;53.584;9.998;2023-04-06T09:06:49;14.20;70.70
15103;DHT22;7652;53.584;9.998;2023-04-06T09:09:52;13.80;70.70
15103;DHT22;7652;53.584;9.998;2023-04-06T09:13:04;13.30;72.90
15103;DHT22;7652;53.584;9.998;2023-04-06T09:16:07;12.90;73.30
15103;DHT22;7652;53.584;9.998;2023-04-06T09:19:12;12.80;72.80
15103;DHT22;7652;53.584;9.998;2023-04-06T09:22:15;12.60;72.60
15103;DHT22;7652;53.584;9.998;2023-04-06T09:25:19;12.40;73.00
15103;DHT22;7652;53.584;9.998;2023-04-06T09:28:24;12.20;74.70
15103;DHT22;7652;53.584;9.998;2023-04-06T09:31:29;12.30;74.90
15103;DHT22;7652;53.584;9.998;2023-04-06T09:34:34;12.40;74.00
15103;DHT22;7652;53.584;9.998;2023-04-06T09:37:37;12.80;76.00
15103;DHT22;7652;53.584;9.998;2023-04-06T09:40:48;13.20;76.80
15103;DHT22;7652;53.584;9.998;2023-04-06T09:44:03;13.60;74.10
15103;DHT22;7652;53.584;9.998;2023-04-06T09:47:07;14.00;73.70
15103;DHT22;7652;53.584;9.998;2023-04-06T09:50:13;14.00;73.30
15103;DHT22;7652;53.584;9.998;2023-04-06T09:53:17;14.70;73.20
15103;DHT22;7652;53.584;9.998;2023-04-06T09:56:24;15.00;71.80
15103;DHT22;7652;53.584;9.998;2023-04-06T09:59:38;15.70;71.10
15103;DHT22;7652;53.584;9.998;2023-04-06T10:02:48;15.90;67.50
15103;DHT22;7652;53.584;9.998;2023-04-06T10:05:55;16.00;65.20
15103;DHT22;7652;53.584;9.998;2023-04-06T10:09:02;15.70;66.10
15103;DHT22;7652;53.584;9.998;2023-04-06T10:12:05;16.20;62.90
15103;DHT22;7652;53.584;9.998;2023-04-06T10:15:10;16.60;61.50
15103;DHT22;7652;53.584;9.998;2023-04-06T10:18:13;16.70;60.80
15103;DHT22;7652;53.584;9.998;2023-04-06T10:21:22;16.50;59.80
15103;DHT22;7652;53.584;9.998;2023-04-06T10:24:26;16.90;60.30
15103;DHT22;7652;53.584;9.998;2023-04-06T10:27:30;17.60;57.30
15103;DHT22;7652;53.584;9.998;2023-04-06T10:30:34;17.20;57.30
15103;DHT22;7652;53.584;9.998;2023-04-06T10:33:37;17.50;57.20
15103;DHT22;7652;53.584;9.998;2023-04-06T10:36:41;17.50;57.30
15103;DHT22;7652;53.584;9.998;2023-04-06T10:39:51;17.90;57.10
15103;DHT22;7652;53.584;9.998;2023-04-06T10:43:07;18.10;54.90
15103;DHT22;7652;53.584;9.998;2023-04-06T10:46:11;18.00;54.80
15103;DHT22;7652;53.584;9.998;2023-04-06T10:49:14;18.40;55.10
15103;DHT22;7652;53.584;9.998;2023-04-06T10:52:18;18.90;53.30
15103;DHT22;7652;53.584;9.998;2023-04-06T10:55:21;19.50;53.00
15103;DHT22;7652;53.584;9.998;2023-04-06T10:58:25;19.50;51.70
15103;DHT22;7652;53.584;9.998;2023-04-06T11:01:28;19.60;51.40
15103;DHT22;7652;53.584;9.998;2023-04-06T11:04:32;19.10;50.70
15103;DHT22;7652;53.584;9.998;2023-04-06T11:07:36;18.40;52.60
15103;DHT22;7652;53.584;9.998;2023-04-06T11:10:39;18.90;52.80
15103;DHT22;7652;53.584;9.998;2023-04-06T11:13:44;19.90;52.20
15103;DHT22;7652;53.584;9.998;2023-04-06T11:16:47;20.50;50.00
15103;DHT22;7652;53.584;9.998;2023-04-06T11:19:51;20.00;49.60
15103;DHT22;7652;53.584;9.998;2023-04-06T11:22:56;20.00;50.20
15103;DHT22;7652;53.584;9.998;2023-04-06T11:26:00;20.70;49.50
15103;DHT22;7652;53.584;9.998;2023-04-06T11:29:04;21.60;47.80
15103;DHT22;7652;53.584;9.998;2023-04-06T11:32:07;21.10;48.60
15103;DHT22;7652;53.584;9.998;2023-04-06T11:35:11;21.40;47.80
15103;DHT22;7652;53.584;9.998;2023-04-06T11:38:19;21.80;46.50
15103;DHT22;7652;53.584;9.998;2023-04-06T11:41:23;21.40;46.70
15103;DHT22;7652;53.584;9.998;2023-04-06T11:44:30;21.60;46.80
15103;DHT22;7652;53.584;9.998;2023-04-06T11:47:36;21.70;47.60
15103;DHT22;7652;53.584;9.998;2023-04-06T11:50:40;21.70;45.90
15103;DHT22;7652;53.584;9.998;2023-04-06T11:53:45;20.30;47.50
15103;DHT22;7652;53.584;9.998;2023-04-06T11:56:48;20.50;47.60
15103;DHT22;7652;53.584;9.998;2023-04-06T11:59:51;20.80;47.10
15103;DHT22;7652;53.584;9.998;2023-04-06T12:02:54;21.10;46.30
15103;DHT22;7652;53.584;9.998;2023-04-06T12:05:57;21.30;46.40
15103;DHT22;7652;53.584;9.998;2023-04-06T12:09:02;21.50;45.20
15103;DHT22;7652;53.584;9.998;2023-04-06T12:12:05;21.80;45.30
15103;DHT22;7652;53.584;9.998;2023-04-06T12:15:08;21.20;45.60
15103;DHT22;7652;53.584;9.998;2023-04-06T12:18:12;20.70;46.10
15103;DHT22;7652;53.584;9.998;2023-04-06T12:21:15;21.70;45.40
15103;DHT22;7652;53.584;9.998;2023-04-06T12:24:19;22.20;45.80
15103;DHT22;7652;53.584;9.998;2023-04-06T12:27:22;21.90;44.40
15103;DHT22;7652;53.584;9.998;2023-04-06T12:30:25;22.50;43.80
15103;DHT22;7652;53.584;9.998;2023-04-06T12:33:28;23.40;42.00
15103;DHT22;7652;53.584;9.998;2023-04-06T12:36:31;22.50;43.80
15103;DHT22;7652;53.584;9.998;2023-04-06T12:39:35;22.70;43.10
15103;DHT22;7652;53.584;9.998;2023-04-06T12:42:39;22.20;43.20
15103;DHT22;7652;53.584;9.998;2023-04-06T12:45:43;22.60;43.60
15103;DHT22;7652;53.584;9.998;2023-04-06T12:48:46;23.10;42.10
15103;DHT22;7652;53.584;9.998;2023-04-06T12:51:49;22.90;42.50
15103;DHT22;7652;53.584;9.998;2023-04-06T12:54:54;22.60;42.90
15103;DHT22;7652;53.584;9.998;2023-04-06T12:57:57;23.00;42.70
15103;DHT22;7652;53.584;9.998;2023-04-06T13:01:00;22.40;42.50
15103;DHT22;7652;53.584;9.998;2023-04-06T13:04:05;22.10;43.30
15103;DHT22;7652;53.584;9.998;2023-04-06T13:07:07;21.40;44.60
15103;DHT22;7652;53.584;9.998;2023-04-06T13:10:12;21.80;43.00
15103;DHT22;7652;53.584;9.998;2023-04-06T13:13:15;22.00;42.90
15103;DHT22;7652;53.584;9.998;2023-04-06T13:16:18;22.10;42.70
15103;DHT22;7652;53.584;9.998;2023-04-06T13:19:22;21.70;43.50
15103;DHT22;7652;53.584;9.998;2023-04-06T13:22:25;21.50;44.60
15103;DHT22;7652;53.584;9.998;2023-04-06T13:25:29;20.30;45.90
15103;DHT22;7652;53.584;9.998;2023-04-06T13:28:35;19.80;45.80
15103;DHT22;7652;53.584;9.998;2023-04-06T13:31:39;19.10;47.00
15103;DHT22;7652;53.584;9.998;2023-04-06T13:34:42;17.80;48.10
15103;DHT22;7652;53.584;9.998;2023-04-06T13:37:46;17.10;49.70
15103;DHT22;7652;53.584;9.998;2023-04-06T13:40:51;16.90;50.10
15103;DHT22;7652;53.584;9.998;2023-04-06T13:43:54;16.70;51.60
15103;DHT22;7652;53.584;9.998;2023-04-06T13:46:57;16.50;52.30
15103;DHT22;7652;53.584;9.998;2023-04-06T13:50:00;16.30;52.50
15103;DHT22;7652;53.584;9.998;2023-04-06T13:53:03;16.00;52.80
15103;DHT22;7652;53.584;9.998;2023-04-06T13:56:08;15.80;53.50
15103;DHT22;7652;53.584;9.998;2023-04-06T13:59:11;15.80;53.50
15103;DHT22;7652;53.584;9.998;2023-04-06T14:02:15;15.70;53.50
15103;DHT22;7652;53.584;9.998;2023-04-06T14:05:19;15.60;53.70
15103;DHT22;7652;53.584;9.998;2023-04-06T14:08:22;15.40;54.80
15103;DHT22;7652;53.584;9.998;2023-04-06T14:11:26;15.30;54.70
15103;DHT22;7652;53.584;9.998;2023-04-06T14:14:29;15.30;55.30
15103;DHT22;7652;53.584;9.998;2023-04-06T14:17:32;15.40;55.70
15103;DHT22;7652;53.584;9.998;2023-04-06T14:20:35;15.30;55.00
15103;DHT22;7652;53.584;9.998;2023-04-06T14:23:38;15.20;55.80
15103;DHT22;7652;53.584;9.998;2023-04-06T14:26:43;15.10;56.10
15103;DHT22;7652;53.584;9.998;2023-04-06T14:29:46;15.20;56.70
15103;DHT22;7652;53.584;9.998;2023-04-06T14:32:49;15.20;55.50
15103;DHT22;7652;53.584;9.998;2023-04-06T14:35:52;14.90;56.30
15103;DHT22;7652;53.584;9.998;2023-04-06T14:38:57;14.90;56.60
15103;DHT22;7652;53.584;9.998;2023-04-06T14:42:01;14.90;56.80
15103;DHT22;7652;53.584;9.998;2023-04-06T14:45:05;14.90;56.40
15103;DHT22;7652;53.584;9.998;2023-04-06T14:48:08;14.90;56.70
15103;DHT22;7652;53.584;9.998;2023-04-06T14:51:13;14.90;57.00
15103;DHT22;7652;53.584;9.998;2023-04-06T14:54:16;14.90;56.90
15103;DHT22;7652;53.584;9.998;2023-04-06T14:57:21;14.80;56.80
15103;DHT22;7652;53.584;9.998;2023-04-06T15:00:24;14.80;57.10
15103;DHT22;7652;53.584;9.998;2023-04-06T15:03:28;14.70;56.80
15103;DHT22;7652;53.584;9.998;2023-04-06T15:06:31;14.70;57.30
15103;DHT22;7652;53.584;9.998;2023-04-06T15:09:35;14.70;57.20
15103;DHT22;7652;53.584;9.998;2023-04-06T15:12:39;14.70;57.40
15103;DHT22;7652;53.584;9.998;2023-04-06T15:15:43;14.70;57.80
15103;DHT22;7652;53.584;9.998;2023-04-06T15:18:46;14.60;57.60
15103;DHT22;7652;53.584;9.998;2023-04-06T15:21:49;14.50;57.70
15103;DHT22;7652;53.584;9.998;2023-04-06T15:24:52;14.60;58.30
15103;DHT22;7652;53.584;9.998;2023-04-06T15:27:56;14.50;58.00
15103;DHT22;7652;53.584;9.998;2023-04-06T15:31:02;14.40;57.60
15103;DHT22;7652;53.584;9.998;2023-04-06T15:34:08;14.30;57.60
15103;DHT22;7652;53.584;9.998;2023-04-06T15:37:11;14.20;58.00
15103;DHT22;7652;53.584;9.998;2023-04-06T15:40:14;14.20;58.30
15103;DHT22;7652;53.584;9.998;2023-04-06T15:43:18;14.20;58.50
15103;DHT22;7652;53.584;9.998;2023-04-06T15:46:22;14.20;58.70
15103;DHT22;7652;53.584;9.998;2023-04-06T15:49:25;14.20;58.60
15103;DHT22;7652;53.584;9.998;2023-04-06T15:52:28;14.10;58.60
15103;DHT22;7652;53.584;9.998;2023-04-06T15:55:31;14.10;59.60
15103;DHT22;7652;53.584;9.998;2023-04-06T15:58:36;14.10;59.20
15103;DHT22;7652;53.584;9.998;2023-04-06T16:01:39;13.90;59.00
15103;DHT22;7652;53.584;9.998;2023-04-06T16:04:43;13.90;59.30
15103;DHT22;7652;53.584;9.998;2023-04-06T16:07:46;13.90;59.30
15103;DHT22;7652;53.584;9.998;2023-04-06T16:10:49;13.90;59.60
15103;DHT22;7652;53.584;9.998;2023-04-06T16:13:54;13.80;59.60
15103;DHT22;7652;53.584;9.998;2023-04-06T16:16:57;13.80;59.70
15103;DHT22;7652;53.584;9.998;2023-04-06T16:20:01;13.80;59.50
15103;DHT22;7652;53.584;9.998;2023-04-06T16:23:05;13.70;60.00
15103;DHT22;7652;53.584;9.998;2023-04-06T16:26:10;13.70;60.30
15103;DHT22;7652;53.584;9.998;2023-04-06T16:29:15;13.70;60.70
15103;DHT22;7652;53.584;9.998;2023-04-06T16:32:18;13.70;60.30
15103;DHT22;7652;53.584;9.998;2023-04-06T16:35:22;13.60;60.70
15103;DHT22;7652;53.584;9.998;2023-04-06T16:38:26;13.50;61.20
15103;DHT22;7652;53.584;9.998;2023-04-06T16:41:37;13.40;61.10
15103;DHT22;7652;53.584;9.998;2023-04-06T16:44:41;13.30;61.60
15103;DHT22;7652;53.584;9.998;2023-04-06T16:47:44;13.30;62.00
15103;DHT22;7652;53.584;9.998;2023-04-06T16:50:48;13.30;62.30
15103;DHT22;7652;53.584;9.998;2023-04-06T16:53:52;13.20;62.70
15103;DHT22;7652;53.584;9.998;2023-04-06T16:56:55;13.10;62.80
15103;DHT22;7652;53.584;9.998;2023-04-06T17:00:00;13.10;63.10
15103;DHT22;7652;53.584;9.998;2023-04-06T17:03:03;13.10;62.90
15103;DHT22;7652;53.584;9.998;2023-04-06T17:06:06;13.00;63.00
15103;DHT22;7652;53.584;9.998;2023-04-06T17:09:09;12.90;63.00
15103;DHT22;7652;53.584;9.998;2023-04-06T17:12:13;12.90;63.60
15103;DHT22;7652;53.584;9.998;2023-04-06T17:15:17;12.80;64.70
15103;DHT22;7652;53.584;9.998;2023-04-06T17:18:20;12.80;63.80
15103;DHT22;7652;53.584;9.998;2023-04-06T17:21:23;12.80;64.00
15103;DHT22;7652;53.584;9.998;2023-04-06T17:24:27;12.60;64.60
15103;DHT22;7652;53.584;9.998;2023-04-06T17:27:30;12.60;65.00
15103;DHT22;7652;53.584;9.998;2023-04-06T17:30:34;12.50;65.20
15103;DHT22;7652;53.584;9.998;2023-04-06T17:33:38;12.50;65.00
15103;DHT22;7652;53.584;9.998;2023-04-06T17:36:41;12.50;65.60
15103;DHT22;7652;53.584;9.998;2023-04-06T17:39:44;12.40;65.60
15103;DHT22;7652;53.584;9.998;2023-04-06T17:42:47;12.40;66.10
15103;DHT22;7652;53.584;9.998;2023-04-06T17:45:52;12.30;66.30
15103;DHT22;7652;53.584;9.998;2023-04-06T17:48:55;12.20;67.00
15103;DHT22;7652;53.584;9.998;2023-04-06T17:51:58;12.20;67.00
15103;DHT22;7652;53.584;9.998;2023-04-06T17:55:01;12.10;67.50
15103;DHT22;7652;53.584;9.998;2023-04-06T17:58:04;12.10;68.20
15103;DHT22;7652;53.584;9.998;2023-04-06T18:01:08;12.00;68.70
15103;DHT22;7652;53.584;9.998;2023-04-06T18:04:12;12.00;69.00
15103;DHT22;7652;53.584;9.998;2023-04-06T18:07:15;11.90;69.60
15103;DHT22;7652;53.584;9.998;2023-04-06T18:10:18;11.80;70.40
15103;DHT22;7652;53.584;9.998;2023-04-06T18:13:21;11.80;71.10
15103;DHT22;7652;53.584;9.998;2023-04-06T18:16:26;11.70;72.10
15103;DHT22;7652;53.584;9.998;2023-04-06T18:19:30;11.60;73.30
15103;DHT22;7652;53.584;9.998;2023-04-06T18:22:35;11.50;73.80
15103;DHT22;7652;53.584;9.998;2023-04-06T18:25:38;11.50;74.30
15103;DHT22;7652;53.584;9.998;2023-04-06T18:28:41;11.40;74.80
15103;DHT22;7652;53.584;9.998;2023-04-06T18:31:45;11.40;75.60
15103;DHT22;7652;53.584;9.998;2023-04-06T18:34:51;11.30;75.90
15103;DHT22;7652;53.584;9.998;2023-04-06T18:37:58;11.20;76.50
15103;DHT22;7652;53.584;9.998;2023-04-06T18:41:01;11.10;76.70
15103;DHT22;7652;53.584;9.998;2023-04-06T18:44:04;11.10;77.20
15103;DHT22;7652;53.584;9.998;2023-04-06T18:47:08;11.00;77.00
15103;DHT22;7652;53.584;9.998;2023-04-06T18:50:11;11.00;78.00
15103;DHT22;7652;53.584;9.998;2023-04-06T18:53:14;10.90;78.00
15103;DHT22;7652;53.584;9.998;2023-04-06T18:56:18;10.90;78.60
15103;DHT22;7652;53.584;9.998;2023-04-06T18:59:22;10.80;78.80
15103;DHT22;7652;53.584;9.998;2023-04-06T19:02:26;10.80;78.90
15103;DHT22;7652;53.584;9.998;2023-04-06T19:05:29;10.70;79.80
15103;DHT22;7652;53.584;9.998;2023-04-06T19:08:32;10.60;80.00
15103;DHT22;7652;53.584;9.998;2023-04-06T19:11:36;10.60;79.90
15103;DHT22;7652;53.584;9.998;2023-04-06T19:14:40;10.60;80.00
15103;DHT22;7652;53.584;9.998;2023-04-06T19:17:46;10.50;80.80
15103;DHT22;7652;53.584;9.998;2023-04-06T19:20:49;10.50;81.10
15103;DHT22;7652;53.584;9.998;2023-04-06T19:23:53;10.40;80.70
15103;DHT22;7652;53.584;9.998;2023-04-06T19:26:57;10.40;80.90
15103;DHT22;7652;53.584;9.998;2023-04-06T19:30:01;10.40;81.50
15103;DHT22;7652;53.584;9.998;2023-04-06T19:33:05;10.30;81.70
15103;DHT22;7652;53.584;9.998;2023-04-06T19:36:08;10.30;82.30
15103;DHT22;7652;53.584;9.998;2023-04-06T19:39:12;10.20;82.80
15103;DHT22;7652;53.584;9.998;2023-04-06T19:42:17;10.20;82.90
15103;DHT22;7652;53.584;9.998;2023-04-06T19:45:22;10.10;83.40
15103;DHT22;7652;53.584;9.998;2023-04-06T19:48:26;10.10;84.00